sensor_id;sensor_type;location;lat;lon;timestamp;P1;durP1;ratioP1;P2;durP2;ratioP2
56051;SDS011;41919;42.648;23.384;2022-08-03T00:00:06;1.40;;;1.00;;
56051;SDS011;41919;42.648;23.384;2022-08-03T00:02:32;2.58;;;1.17;;
56051;SDS011;41919;42.648;23.384;2022-08-03T00:04:58;1.00;;;0.98;;
56051;SDS011;41919;42.648;23.384;2022-08-03T00:07:23;1.20;;;1.10;;
56051;SDS011;41919;42.648;23.384;2022-08-03T00:09:49;1.02;;;1.02;;
56051;SDS011;41919;42.648;23.384;2022-08-03T00:12:14;2.00;;;1.25;;
56051;SDS011;41919;42.648;23.384;2022-08-03T00:14:40;1.45;;;1.10;;
56051;SDS011;41919;42.648;23.384;2022-08-03T00:17:06;1.70;;;1.15;;
56051;SDS011;41919;42.648;23.384;2022-08-03T00:19:31;1.33;;;1.20;;
56051;SDS011;41919;42.648;23.384;2022-08-03T00:21:56;1.42;;;1.10;;
56051;SDS011;41919;42.648;23.384;2022-08-03T00:24:22;1.20;;;1.10;;
56051;SDS011;41919;42.648;23.384;2022-08-03T00:26:47;1.88;;;1.23;;
56051;SDS011;41919;42.648;23.384;2022-08-03T00:29:13;1.20;;;1.10;;
56051;SDS011;41919;42.648;23.384;2022-08-03T00:31:38;1.10;;;1.10;;
56051;SDS011;41919;42.648;23.384;2022-08-03T00:34:04;1.10;;;1.10;;
56051;SDS011;41919;42.648;23.384;2022-08-03T00:36:30;1.10;;;1.10;;
56051;SDS011;41919;42.648;23.384;2022-08-03T00:38:55;1.50;;;1.20;;
56051;SDS011;41919;42.648;23.384;2022-08-03T00:41:21;1.45;;;1.33;;
56051;SDS011;41919;42.648;23.384;2022-08-03T00:43:47;1.85;;;1.20;;
56051;SDS011;41919;42.648;23.384;2022-08-03T00:46:12;1.30;;;1.30;;
56051;SDS011;41919;42.648;23.384;2022-08-03T00:48:38;3.40;;;1.20;;
56051;SDS011;41919;42.648;23.384;2022-08-03T00:51:03;2.72;;;1.23;;
56051;SDS011;41919;42.648;23.384;2022-08-03T00:53:29;1.40;;;1.30;;
56051;SDS011;41919;42.648;23.384;2022-08-03T00:55:55;1.20;;;1.10;;
56051;SDS011;41919;42.648;23.384;2022-08-03T00:58:21;1.20;;;1.15;;
56051;SDS011;41919;42.648;23.384;2022-08-03T01:00:48;2.85;;;1.38;;
56051;SDS011;41919;42.648;23.384;2022-08-03T01:03:13;2.05;;;1.73;;
56051;SDS011;41919;42.648;23.384;2022-08-03T01:05:43;2.20;;;1.30;;
56051;SDS011;41919;42.648;23.384;2022-08-03T01:16:43;2.20;;;1.40;;
56051;SDS011;41919;42.648;23.384;2022-08-03T01:30:31;1.40;;;1.35;;
56051;SDS011;41919;42.648;23.384;2022-08-03T01:33:00;2.50;;;1.48;;
56051;SDS011;41919;42.648;23.384;2022-08-03T01:35:36;1.40;;;1.30;;
56051;SDS011;41919;42.648;23.384;2022-08-03T01:38:09;1.40;;;1.30;;
56051;SDS011;41919;42.648;23.384;2022-08-03T01:40:38;1.50;;;1.40;;
56051;SDS011;41919;42.648;23.384;2022-08-03T01:43:05;1.45;;;1.35;;
56051;SDS011;41919;42.648;23.384;2022-08-03T01:45:35;1.50;;;1.40;;
56051;SDS011;41919;42.648;23.384;2022-08-03T01:48:02;1.77;;;1.65;;
56051;SDS011;41919;42.648;23.384;2022-08-03T01:50:29;1.30;;;1.20;;
56051;SDS011;41919;42.648;23.384;2022-08-03T01:52:56;1.52;;;1.42;;
56051;SDS011;41919;42.648;23.384;2022-08-03T01:55:24;1.38;;;1.27;;
56051;SDS011;41919;42.648;23.384;2022-08-03T01:57:52;1.40;;;1.30;;
56051;SDS011;41919;42.648;23.384;2022-08-03T02:00:19;1.58;;;1.48;;
56051;SDS011;41919;42.648;23.384;2022-08-03T02:02:46;1.50;;;1.40;;
56051;SDS011;41919;42.648;23.384;2022-08-03T02:05:13;1.60;;;1.50;;
56051;SDS011;41919;42.648;23.384;2022-08-03T02:07:41;1.10;;;1.10;;
56051;SDS011;41919;42.648;23.384;2022-08-03T02:10:07;1.60;;;1.50;;
56051;SDS011;41919;42.648;23.384;2022-08-03T02:12:35;1.60;;;1.50;;
56051;SDS011;41919;42.648;23.384;2022-08-03T02:15:02;1.42;;;1.33;;
56051;SDS011;41919;42.648;23.384;2022-08-03T02:17:28;1.55;;;1.30;;
56051;SDS011;41919;42.648;23.384;2022-08-03T02:19:56;1.67;;;1.20;;
56051;SDS011;41919;42.648;23.384;2022-08-03T02:22:24;1.35;;;1.25;;
56051;SDS011;41919;42.648;23.384;2022-08-03T02:24:50;1.50;;;1.40;;
56051;SDS011;41919;42.648;23.384;2022-08-03T02:27:25;2.38;;;1.20;;
56051;SDS011;41919;42.648;23.384;2022-08-03T02:30:03;1.13;;;1.10;;
56051;SDS011;41919;42.648;23.384;2022-08-03T02:32:33;2.63;;;1.40;;
56051;SDS011;41919;42.648;23.384;2022-08-03T02:35:02;1.50;;;1.40;;
56051;SDS011;41919;42.648;23.384;2022-08-03T02:37:31;1.92;;;1.35;;
56051;SDS011;41919;42.648;23.384;2022-08-03T02:40:01;2.00;;;1.48;;
56051;SDS011;41919;42.648;23.384;2022-08-03T02:42:30;1.42;;;1.33;;
56051;SDS011;41919;42.648;23.384;2022-08-03T02:44:57;2.70;;;2.42;;
56051;SDS011;41919;42.648;23.384;2022-08-03T02:47:26;1.33;;;1.23;;
56051;SDS011;41919;42.648;23.384;2022-08-03T02:49:54;2.20;;;2.00;;
56051;SDS011;41919;42.648;23.384;2022-08-03T02:52:23;1.33;;;1.20;;
56051;SDS011;41919;42.648;23.384;2022-08-03T02:54:52;1.40;;;1.30;;
56051;SDS011;41919;42.648;23.384;2022-08-03T02:57:20;1.40;;;1.30;;
56051;SDS011;41919;42.648;23.384;2022-08-03T02:59:48;1.20;;;1.20;;
56051;SDS011;41919;42.648;23.384;2022-08-03T03:02:16;1.25;;;1.20;;
56051;SDS011;41919;42.648;23.384;2022-08-03T03:04:43;2.97;;;1.40;;
56051;SDS011;41919;42.648;23.384;2022-08-03T03:07:10;1.48;;;1.33;;
56051;SDS011;41919;42.648;23.384;2022-08-03T03:09:40;1.50;;;1.40;;
56051;SDS011;41919;42.648;23.384;2022-08-03T03:12:07;1.50;;;1.40;;
56051;SDS011;41919;42.648;23.384;2022-08-03T03:14:35;2.20;;;2.00;;
56051;SDS011;41919;42.648;23.384;2022-08-03T03:17:01;1.60;;;1.50;;
56051;SDS011;41919;42.648;23.384;2022-08-03T03:19:28;1.80;;;1.60;;
56051;SDS011;41919;42.648;23.384;2022-08-03T03:21:56;1.83;;;1.70;;
56051;SDS011;41919;42.648;23.384;2022-08-03T03:24:24;1.65;;;1.50;;
56051;SDS011;41919;42.648;23.384;2022-08-03T03:26:51;1.67;;;1.58;;
56051;SDS011;41919;42.648;23.384;2022-08-03T03:29:17;1.77;;;1.67;;
56051;SDS011;41919;42.648;23.384;2022-08-03T03:31:43;1.70;;;1.60;;
56051;SDS011;41919;42.648;23.384;2022-08-03T03:34:08;1.55;;;1.45;;
56051;SDS011;41919;42.648;23.384;2022-08-03T03:36:34;1.77;;;1.67;;
56051;SDS011;41919;42.648;23.384;2022-08-03T03:39:00;1.77;;;1.67;;
56051;SDS011;41919;42.648;23.384;2022-08-03T03:41:25;1.67;;;1.58;;
56051;SDS011;41919;42.648;23.384;2022-08-03T03:43:51;1.73;;;1.63;;
56051;SDS011;41919;42.648;23.384;2022-08-03T03:46:16;8.93;;;3.60;;
56051;SDS011;41919;42.648;23.384;2022-08-03T03:48:42;3.05;;;1.70;;
56051;SDS011;41919;42.648;23.384;2022-08-03T03:51:09;3.13;;;1.88;;
56051;SDS011;41919;42.648;23.384;2022-08-03T03:53:34;2.20;;;1.50;;
56051;SDS011;41919;42.648;23.384;2022-08-03T03:56:00;1.60;;;1.50;;
56051;SDS011;41919;42.648;23.384;2022-08-03T03:58:25;1.73;;;1.55;;
56051;SDS011;41919;42.648;23.384;2022-08-03T04:00:51;2.05;;;1.65;;
56051;SDS011;41919;42.648;23.384;2022-08-03T04:03:17;1.98;;;1.30;;
56051;SDS011;41919;42.648;23.384;2022-08-03T04:05:43;1.65;;;1.55;;
56051;SDS011;41919;42.648;23.384;2022-08-03T04:08:28;1.73;;;1.58;;
56051;SDS011;41919;42.648;23.384;2022-08-03T04:14:23;5.00;;;1.85;;
56051;SDS011;41919;42.648;23.384;2022-08-03T04:16:55;1.83;;;1.73;;
56051;SDS011;41919;42.648;23.384;2022-08-03T04:19:31;1.70;;;1.60;;
56051;SDS011;41919;42.648;23.384;2022-08-03T04:22:10;2.17;;;1.92;;
56051;SDS011;41919;42.648;23.384;2022-08-03T04:24:39;2.80;;;1.70;;
56051;SDS011;41919;42.648;23.384;2022-08-03T04:27:08;1.50;;;1.40;;
56051;SDS011;41919;42.648;23.384;2022-08-03T04:29:36;1.95;;;1.70;;
56051;SDS011;41919;42.648;23.384;2022-08-03T04:32:05;2.20;;;1.67;;
56051;SDS011;41919;42.648;23.384;2022-08-03T04:34:32;2.10;;;1.80;;
56051;SDS011;41919;42.648;23.384;2022-08-03T04:36:59;1.70;;;1.60;;
56051;SDS011;41919;42.648;23.384;2022-08-03T04:39:28;2.60;;;1.80;;
56051;SDS011;41919;42.648;23.384;2022-08-03T04:41:57;1.73;;;1.63;;
56051;SDS011;41919;42.648;23.384;2022-08-03T04:44:25;2.60;;;1.50;;
56051;SDS011;41919;42.648;23.384;2022-08-03T04:46:52;2.30;;;2.03;;
56051;SDS011;41919;42.648;23.384;2022-08-03T04:49:19;2.33;;;1.48;;
56051;SDS011;41919;42.648;23.384;2022-08-03T04:51:47;1.55;;;1.45;;
56051;SDS011;41919;42.648;23.384;2022-08-03T04:54:13;1.75;;;1.40;;
56051;SDS011;41919;42.648;23.384;2022-08-03T04:56:40;1.95;;;1.55;;
56051;SDS011;41919;42.648;23.384;2022-08-03T04:59:07;1.80;;;1.70;;
56051;SDS011;41919;42.648;23.384;2022-08-03T05:01:33;1.60;;;1.42;;
56051;SDS011;41919;42.648;23.384;2022-08-03T05:03:59;1.70;;;1.60;;
56051;SDS011;41919;42.648;23.384;2022-08-03T05:06:24;1.58;;;1.48;;
56051;SDS011;41919;42.648;23.384;2022-08-03T05:08:49;1.80;;;1.70;;
56051;SDS011;41919;42.648;23.384;2022-08-03T05:11:15;1.80;;;1.60;;
56051;SDS011;41919;42.648;23.384;2022-08-03T05:13:41;4.15;;;1.60;;
56051;SDS011;41919;42.648;23.384;2022-08-03T05:16:07;1.98;;;1.60;;
56051;SDS011;41919;42.648;23.384;2022-08-03T05:18:32;1.63;;;1.52;;
56051;SDS011;41919;42.648;23.384;2022-08-03T05:20:57;1.80;;;1.67;;
56051;SDS011;41919;42.648;23.384;2022-08-03T05:23:23;5.05;;;2.78;;
56051;SDS011;41919;42.648;23.384;2022-08-03T05:25:48;8.73;;;4.68;;
56051;SDS011;41919;42.648;23.384;2022-08-03T05:28:14;10.25;;;4.80;;
56051;SDS011;41919;42.648;23.384;2022-08-03T05:30:39;7.18;;;4.82;;
56051;SDS011;41919;42.648;23.384;2022-08-03T05:33:05;6.53;;;4.47;;
56051;SDS011;41919;42.648;23.384;2022-08-03T05:35:30;8.40;;;5.15;;
56051;SDS011;41919;42.648;23.384;2022-08-03T05:37:59;6.20;;;4.88;;
56051;SDS011;41919;42.648;23.384;2022-08-03T05:40:24;5.63;;;4.28;;
56051;SDS011;41919;42.648;23.384;2022-08-03T05:42:50;6.32;;;4.47;;
56051;SDS011;41919;42.648;23.384;2022-08-03T05:45:15;5.15;;;3.75;;
56051;SDS011;41919;42.648;23.384;2022-08-03T05:47:44;3.75;;;3.17;;
56051;SDS011;41919;42.648;23.384;2022-08-03T05:50:10;4.20;;;3.63;;
56051;SDS011;41919;42.648;23.384;2022-08-03T05:52:37;8.45;;;3.50;;
56051;SDS011;41919;42.648;23.384;2022-08-03T05:58:24;4.22;;;3.17;;
56051;SDS011;41919;42.648;23.384;2022-08-03T06:00:50;4.28;;;2.70;;
56051;SDS011;41919;42.648;23.384;2022-08-03T06:03:15;3.33;;;2.35;;
56051;SDS011;41919;42.648;23.384;2022-08-03T06:05:41;6.32;;;2.80;;
56051;SDS011;41919;42.648;23.384;2022-08-03T06:08:06;3.42;;;2.60;;
56051;SDS011;41919;42.648;23.384;2022-08-03T06:10:31;4.38;;;2.40;;
56051;SDS011;41919;42.648;23.384;2022-08-03T06:12:57;3.13;;;2.53;;
56051;SDS011;41919;42.648;23.384;2022-08-03T06:15:22;2.60;;;2.40;;
56051;SDS011;41919;42.648;23.384;2022-08-03T06:17:48;6.65;;;2.78;;
56051;SDS011;41919;42.648;23.384;2022-08-03T06:20:16;7.50;;;2.47;;
56051;SDS011;41919;42.648;23.384;2022-08-03T06:22:43;6.32;;;2.72;;
56051;SDS011;41919;42.648;23.384;2022-08-03T06:25:09;4.57;;;2.40;;
56051;SDS011;41919;42.648;23.384;2022-08-03T06:27:34;8.85;;;2.90;;
56051;SDS011;41919;42.648;23.384;2022-08-03T06:30:04;3.50;;;2.80;;
56051;SDS011;41919;42.648;23.384;2022-08-03T06:32:30;5.00;;;2.80;;
56051;SDS011;41919;42.648;23.384;2022-08-03T06:34:55;3.03;;;2.70;;
56051;SDS011;41919;42.648;23.384;2022-08-03T06:37:21;5.65;;;3.15;;
56051;SDS011;41919;42.648;23.384;2022-08-03T06:39:47;6.30;;;2.70;;
56051;SDS011;41919;42.648;23.384;2022-08-03T06:42:12;2.72;;;2.30;;
56051;SDS011;41919;42.648;23.384;2022-08-03T06:44:38;5.22;;;2.63;;
56051;SDS011;41919;42.648;23.384;2022-08-03T06:47:03;3.63;;;2.45;;
56051;SDS011;41919;42.648;23.384;2022-08-03T06:49:28;4.75;;;2.58;;
56051;SDS011;41919;42.648;23.384;2022-08-03T06:51:54;2.55;;;2.22;;
56051;SDS011;41919;42.648;23.384;2022-08-03T06:54:20;3.80;;;2.00;;
56051;SDS011;41919;42.648;23.384;2022-08-03T06:56:46;5.32;;;2.67;;
56051;SDS011;41919;42.648;23.384;2022-08-03T06:59:12;6.38;;;2.63;;
56051;SDS011;41919;42.648;23.384;2022-08-03T07:01:38;3.35;;;2.20;;
56051;SDS011;41919;42.648;23.384;2022-08-03T07:04:03;4.22;;;2.53;;
56051;SDS011;41919;42.648;23.384;2022-08-03T07:06:29;4.55;;;3.00;;
56051;SDS011;41919;42.648;23.384;2022-08-03T07:08:55;4.85;;;2.70;;
56051;SDS011;41919;42.648;23.384;2022-08-03T07:11:21;21.13;;;3.85;;
56051;SDS011;41919;42.648;23.384;2022-08-03T07:13:46;12.30;;;3.80;;
56051;SDS011;41919;42.648;23.384;2022-08-03T07:16:12;4.35;;;2.60;;
56051;SDS011;41919;42.648;23.384;2022-08-03T07:18:38;8.15;;;2.53;;
56051;SDS011;41919;42.648;23.384;2022-08-03T07:21:03;7.82;;;2.67;;
56051;SDS011;41919;42.648;23.384;2022-08-03T07:23:29;6.57;;;2.92;;
56051;SDS011;41919;42.648;23.384;2022-08-03T07:25:54;6.88;;;2.90;;
56051;SDS011;41919;42.648;23.384;2022-08-03T07:28:20;3.13;;;2.83;;
56051;SDS011;41919;42.648;23.384;2022-08-03T07:30:46;9.45;;;3.40;;
56051;SDS011;41919;42.648;23.384;2022-08-03T07:33:12;5.10;;;2.88;;
56051;SDS011;41919;42.648;23.384;2022-08-03T07:35:37;5.97;;;3.00;;
56051;SDS011;41919;42.648;23.384;2022-08-03T07:38:03;6.68;;;2.70;;
56051;SDS011;41919;42.648;23.384;2022-08-03T07:40:28;5.38;;;2.90;;
56051;SDS011;41919;42.648;23.384;2022-08-03T07:42:54;6.60;;;2.80;;
56051;SDS011;41919;42.648;23.384;2022-08-03T07:45:19;7.57;;;3.53;;
56051;SDS011;41919;42.648;23.384;2022-08-03T07:47:48;5.32;;;2.83;;
56051;SDS011;41919;42.648;23.384;2022-08-03T07:50:14;4.43;;;2.60;;
56051;SDS011;41919;42.648;23.384;2022-08-03T07:52:39;6.35;;;2.60;;
56051;SDS011;41919;42.648;23.384;2022-08-03T07:55:16;4.18;;;2.70;;
56051;SDS011;41919;42.648;23.384;2022-08-03T07:57:43;4.80;;;2.50;;
56051;SDS011;41919;42.648;23.384;2022-08-03T08:00:13;3.65;;;2.42;;
56051;SDS011;41919;42.648;23.384;2022-08-03T08:02:43;2.42;;;2.22;;
56051;SDS011;41919;42.648;23.384;2022-08-03T08:05:09;3.05;;;2.50;;
56051;SDS011;41919;42.648;23.384;2022-08-03T08:07:36;2.58;;;2.33;;
56051;SDS011;41919;42.648;23.384;2022-08-03T08:10:03;5.05;;;2.50;;
56051;SDS011;41919;42.648;23.384;2022-08-03T08:12:30;3.05;;;2.30;;
56051;SDS011;41919;42.648;23.384;2022-08-03T08:14:55;3.92;;;2.58;;
56051;SDS011;41919;42.648;23.384;2022-08-03T08:17:21;4.40;;;2.30;;
56051;SDS011;41919;42.648;23.384;2022-08-03T08:19:46;2.72;;;2.20;;
56051;SDS011;41919;42.648;23.384;2022-08-03T08:22:12;2.58;;;1.95;;
56051;SDS011;41919;42.648;23.384;2022-08-03T08:24:37;4.45;;;2.50;;
56051;SDS011;41919;42.648;23.384;2022-08-03T08:27:03;5.00;;;2.17;;
56051;SDS011;41919;42.648;23.384;2022-08-03T08:29:28;4.40;;;2.22;;
56051;SDS011;41919;42.648;23.384;2022-08-03T08:31:53;4.05;;;2.38;;
56051;SDS011;41919;42.648;23.384;2022-08-03T08:34:19;2.92;;;2.63;;
56051;SDS011;41919;42.648;23.384;2022-08-03T08:36:44;3.10;;;2.10;;
56051;SDS011;41919;42.648;23.384;2022-08-03T08:39:10;3.45;;;2.03;;
56051;SDS011;41919;42.648;23.384;2022-08-03T08:41:36;3.90;;;2.50;;
56051;SDS011;41919;42.648;23.384;2022-08-03T08:44:01;3.78;;;2.17;;
56051;SDS011;41919;42.648;23.384;2022-08-03T08:46:28;3.22;;;2.25;;
56051;SDS011;41919;42.648;23.384;2022-08-03T08:48:56;5.60;;;2.50;;
56051;SDS011;41919;42.648;23.384;2022-08-03T08:51:27;3.13;;;2.50;;
56051;SDS011;41919;42.648;23.384;2022-08-03T08:53:54;3.58;;;1.90;;
56051;SDS011;41919;42.648;23.384;2022-08-03T08:56:22;3.53;;;2.35;;
56051;SDS011;41919;42.648;23.384;2022-08-03T08:58:53;3.30;;;2.30;;
56051;SDS011;41919;42.648;23.384;2022-08-03T09:01:23;3.47;;;2.80;;
56051;SDS011;41919;42.648;23.384;2022-08-03T09:03:48;3.03;;;2.25;;
56051;SDS011;41919;42.648;23.384;2022-08-03T09:06:14;4.32;;;2.33;;
56051;SDS011;41919;42.648;23.384;2022-08-03T09:08:40;2.53;;;2.08;;
56051;SDS011;41919;42.648;23.384;2022-08-03T09:11:05;3.28;;;2.10;;
56051;SDS011;41919;42.648;23.384;2022-08-03T09:13:34;5.03;;;2.33;;
56051;SDS011;41919;42.648;23.384;2022-08-03T09:16:13;2.80;;;2.50;;
56051;SDS011;41919;42.648;23.384;2022-08-03T09:18:41;7.00;;;1.92;;
56051;SDS011;41919;42.648;23.384;2022-08-03T09:24:00;3.53;;;2.47;;
56051;SDS011;41919;42.648;23.384;2022-08-03T09:26:27;3.10;;;2.00;;
56051;SDS011;41919;42.648;23.384;2022-08-03T09:28:58;2.33;;;2.05;;
56051;SDS011;41919;42.648;23.384;2022-08-03T09:34:01;2.75;;;1.80;;
56051;SDS011;41919;42.648;23.384;2022-08-03T09:39:14;1.70;;;1.55;;
56051;SDS011;41919;42.648;23.384;2022-08-03T09:41:48;3.38;;;1.60;;
56051;SDS011;41919;42.648;23.384;2022-08-03T09:44:36;2.05;;;1.55;;
56051;SDS011;41919;42.648;23.384;2022-08-03T09:47:06;1.63;;;1.52;;
56051;SDS011;41919;42.648;23.384;2022-08-03T09:49:34;3.47;;;1.60;;
56051;SDS011;41919;42.648;23.384;2022-08-03T09:52:00;1.77;;;1.67;;
56051;SDS011;41919;42.648;23.384;2022-08-03T09:54:36;2.90;;;1.73;;
56051;SDS011;41919;42.648;23.384;2022-08-03T09:57:02;1.92;;;1.83;;
56051;SDS011;41919;42.648;23.384;2022-08-03T09:59:28;1.85;;;1.70;;
56051;SDS011;41919;42.648;23.384;2022-08-03T10:01:55;2.00;;;1.80;;
56051;SDS011;41919;42.648;23.384;2022-08-03T10:04:22;1.92;;;1.73;;
56051;SDS011;41919;42.648;23.384;2022-08-03T10:07:04;1.83;;;1.73;;
56051;SDS011;41919;42.648;23.384;2022-08-03T10:09:34;2.10;;;1.77;;
56051;SDS011;41919;42.648;23.384;2022-08-03T10:12:11;1.80;;;1.60;;
56051;SDS011;41919;42.648;23.384;2022-08-03T10:14:40;1.80;;;1.70;;
56051;SDS011;41919;42.648;23.384;2022-08-03T10:17:08;2.05;;;1.95;;
56051;SDS011;41919;42.648;23.384;2022-08-03T10:19:33;3.65;;;1.80;;
56051;SDS011;41919;42.648;23.384;2022-08-03T10:22:03;1.90;;;1.80;;
56051;SDS011;41919;42.648;23.384;2022-08-03T10:24:34;2.60;;;1.60;;
56051;SDS011;41919;42.648;23.384;2022-08-03T10:27:04;1.75;;;1.65;;
56051;SDS011;41919;42.648;23.384;2022-08-03T10:29:33;3.60;;;1.88;;
56051;SDS011;41919;42.648;23.384;2022-08-03T10:32:03;2.20;;;1.63;;
56051;SDS011;41919;42.648;23.384;2022-08-03T10:34:33;2.08;;;1.98;;
56051;SDS011;41919;42.648;23.384;2022-08-03T10:37:04;1.90;;;1.67;;
56051;SDS011;41919;42.648;23.384;2022-08-03T10:39:34;1.65;;;1.55;;
56051;SDS011;41919;42.648;23.384;2022-08-03T10:42:00;2.60;;;1.65;;
56051;SDS011;41919;42.648;23.384;2022-08-03T10:44:29;1.75;;;1.65;;
56051;SDS011;41919;42.648;23.384;2022-08-03T10:46:57;1.83;;;1.70;;
56051;SDS011;41919;42.648;23.384;2022-08-03T10:49:24;2.10;;;1.65;;
56051;SDS011;41919;42.648;23.384;2022-08-03T10:51:50;1.90;;;1.80;;
56051;SDS011;41919;42.648;23.384;2022-08-03T10:57:41;1.65;;;1.48;;
56051;SDS011;41919;42.648;23.384;2022-08-03T11:05:35;2.20;;;1.60;;
56051;SDS011;41919;42.648;23.384;2022-08-03T11:08:41;3.20;;;1.65;;
56051;SDS011;41919;42.648;23.384;2022-08-03T11:11:01;2.17;;;1.60;;
56051;SDS011;41919;42.648;23.384;2022-08-03T11:14:00;1.98;;;1.50;;
56051;SDS011;41919;42.648;23.384;2022-08-03T11:16:32;2.90;;;1.50;;
56051;SDS011;41919;42.648;23.384;2022-08-03T11:19:00;1.48;;;1.38;;
56051;SDS011;41919;42.648;23.384;2022-08-03T11:35:18;2.00;;;1.90;;
56051;SDS011;41919;42.648;23.384;2022-08-03T11:40:37;1.50;;;1.40;;
56051;SDS011;41919;42.648;23.384;2022-08-03T11:43:42;3.03;;;1.42;;
56051;SDS011;41919;42.648;23.384;2022-08-03T11:48:33;2.95;;;1.52;;
56051;SDS011;41919;42.648;23.384;2022-08-03T11:51:01;1.90;;;1.80;;
56051;SDS011;41919;42.648;23.384;2022-08-03T11:53:28;1.70;;;1.45;;
56051;SDS011;41919;42.648;23.384;2022-08-03T11:55:57;1.95;;;1.85;;
56051;SDS011;41919;42.648;23.384;2022-08-03T11:58:24;1.70;;;1.60;;
56051;SDS011;41919;42.648;23.384;2022-08-03T12:00:50;2.25;;;1.63;;
56051;SDS011;41919;42.648;23.384;2022-08-03T12:03:16;2.03;;;1.83;;
56051;SDS011;41919;42.648;23.384;2022-08-03T12:05:50;4.05;;;1.50;;
56051;SDS011;41919;42.648;23.384;2022-08-03T12:08:17;3.00;;;1.30;;
56051;SDS011;41919;42.648;23.384;2022-08-03T12:10:52;2.55;;;1.73;;
56051;SDS011;41919;42.648;23.384;2022-08-03T12:13:19;2.15;;;1.60;;
56051;SDS011;41919;42.648;23.384;2022-08-03T12:15:49;1.40;;;1.30;;
56051;SDS011;41919;42.648;23.384;2022-08-03T12:18:20;2.30;;;1.58;;
56051;SDS011;41919;42.648;23.384;2022-08-03T12:20:47;4.22;;;1.85;;
56051;SDS011;41919;42.648;23.384;2022-08-03T12:23:13;2.80;;;1.58;;
56051;SDS011;41919;42.648;23.384;2022-08-03T12:25:40;2.78;;;1.73;;
56051;SDS011;41919;42.648;23.384;2022-08-03T12:30:38;2.00;;;1.05;;
56051;SDS011;41919;42.648;23.384;2022-08-03T12:33:11;3.25;;;1.60;;
56051;SDS011;41919;42.648;23.384;2022-08-03T12:35:45;1.67;;;1.58;;
56051;SDS011;41919;42.648;23.384;2022-08-03T12:38:18;1.50;;;1.40;;
56051;SDS011;41919;42.648;23.384;2022-08-03T12:40:54;1.45;;;1.45;;
56051;SDS011;41919;42.648;23.384;2022-08-03T12:43:20;2.13;;;1.63;;
56051;SDS011;41919;42.648;23.384;2022-08-03T12:45:46;2.28;;;1.83;;
56051;SDS011;41919;42.648;23.384;2022-08-03T12:48:11;1.90;;;1.80;;
56051;SDS011;41919;42.648;23.384;2022-08-03T12:50:37;1.77;;;1.67;;
56051;SDS011;41919;42.648;23.384;2022-08-03T12:53:04;1.55;;;1.40;;
56051;SDS011;41919;42.648;23.384;2022-08-03T12:55:34;1.73;;;1.63;;
56051;SDS011;41919;42.648;23.384;2022-08-03T12:58:01;1.65;;;1.55;;
56051;SDS011;41919;42.648;23.384;2022-08-03T13:00:31;1.50;;;1.40;;
56051;SDS011;41919;42.648;23.384;2022-08-03T13:03:15;1.55;;;1.00;;
56051;SDS011;41919;42.648;23.384;2022-08-03T13:05:44;7.03;;;2.08;;
56051;SDS011;41919;42.648;23.384;2022-08-03T13:08:20;2.05;;;1.77;;
56051;SDS011;41919;42.648;23.384;2022-08-03T13:10:48;1.85;;;1.75;;
56051;SDS011;41919;42.648;23.384;2022-08-03T13:13:15;2.40;;;1.70;;
56051;SDS011;41919;42.648;23.384;2022-08-03T13:15:40;1.83;;;1.73;;
56051;SDS011;41919;42.648;23.384;2022-08-03T13:18:06;1.75;;;1.63;;
56051;SDS011;41919;42.648;23.384;2022-08-03T13:20:32;4.00;;;1.90;;
56051;SDS011;41919;42.648;23.384;2022-08-03T13:22:58;2.25;;;1.52;;
56051;SDS011;41919;42.648;23.384;2022-08-03T13:25:24;2.45;;;1.92;;
56051;SDS011;41919;42.648;23.384;2022-08-03T13:27:49;7.38;;;2.05;;
56051;SDS011;41919;42.648;23.384;2022-08-03T13:30:16;4.47;;;2.00;;
56051;SDS011;41919;42.648;23.384;2022-08-03T13:32:42;6.35;;;2.22;;
56051;SDS011;41919;42.648;23.384;2022-08-03T13:35:08;7.00;;;2.17;;
56051;SDS011;41919;42.648;23.384;2022-08-03T13:37:33;2.72;;;2.10;;
56051;SDS011;41919;42.648;23.384;2022-08-03T13:39:59;4.05;;;2.08;;
56051;SDS011;41919;42.648;23.384;2022-08-03T13:42:26;6.13;;;2.00;;
56051;SDS011;41919;42.648;23.384;2022-08-03T13:44:53;2.13;;;1.90;;
56051;SDS011;41919;42.648;23.384;2022-08-03T13:47:18;4.93;;;2.00;;
56051;SDS011;41919;42.648;23.384;2022-08-03T13:49:44;5.18;;;2.10;;
56051;SDS011;41919;42.648;23.384;2022-08-03T13:52:09;2.15;;;1.90;;
56051;SDS011;41919;42.648;23.384;2022-08-03T13:54:35;2.70;;;2.08;;
56051;SDS011;41919;42.648;23.384;2022-08-03T13:57:01;2.40;;;2.00;;
56051;SDS011;41919;42.648;23.384;2022-08-03T13:59:26;2.45;;;1.90;;
56051;SDS011;41919;42.648;23.384;2022-08-03T14:01:52;3.65;;;2.00;;
56051;SDS011;41919;42.648;23.384;2022-08-03T14:04:18;2.42;;;1.85;;
56051;SDS011;41919;42.648;23.384;2022-08-03T14:06:44;1.80;;;1.70;;
56051;SDS011;41919;42.648;23.384;2022-08-03T14:09:10;2.63;;;1.85;;
56051;SDS011;41919;42.648;23.384;2022-08-03T14:11:37;3.08;;;2.10;;
56051;SDS011;41919;42.648;23.384;2022-08-03T14:14:03;2.00;;;1.90;;
56051;SDS011;41919;42.648;23.384;2022-08-03T14:16:28;2.05;;;1.90;;
56051;SDS011;41919;42.648;23.384;2022-08-03T14:18:54;2.28;;;1.70;;
56051;SDS011;41919;42.648;23.384;2022-08-03T14:21:19;1.88;;;1.77;;
56051;SDS011;41919;42.648;23.384;2022-08-03T14:23:45;2.47;;;1.80;;
56051;SDS011;41919;42.648;23.384;2022-08-03T14:26:10;2.72;;;2.08;;
56051;SDS011;41919;42.648;23.384;2022-08-03T14:28:38;3.20;;;2.10;;
56051;SDS011;41919;42.648;23.384;2022-08-03T14:31:04;1.90;;;1.80;;
56051;SDS011;41919;42.648;23.384;2022-08-03T14:33:29;2.90;;;1.92;;
56051;SDS011;41919;42.648;23.384;2022-08-03T14:35:55;2.13;;;1.90;;
56051;SDS011;41919;42.648;23.384;2022-08-03T14:38:21;2.25;;;2.05;;
56051;SDS011;41919;42.648;23.384;2022-08-03T14:40:46;2.63;;;2.13;;
56051;SDS011;41919;42.648;23.384;2022-08-03T14:43:12;4.28;;;2.28;;
56051;SDS011;41919;42.648;23.384;2022-08-03T14:45:38;2.60;;;2.40;;
56051;SDS011;41919;42.648;23.384;2022-08-03T14:48:05;4.25;;;2.13;;
56051;SDS011;41919;42.648;23.384;2022-08-03T14:50:30;2.30;;;2.10;;
56051;SDS011;41919;42.648;23.384;2022-08-03T14:52:56;2.65;;;2.40;;
56051;SDS011;41919;42.648;23.384;2022-08-03T14:55:22;2.17;;;1.98;;
56051;SDS011;41919;42.648;23.384;2022-08-03T14:57:47;2.10;;;2.00;;
56051;SDS011;41919;42.648;23.384;2022-08-03T15:00:13;1.83;;;1.73;;
56051;SDS011;41919;42.648;23.384;2022-08-03T15:02:39;1.85;;;1.75;;
56051;SDS011;41919;42.648;23.384;2022-08-03T15:05:04;1.98;;;1.85;;
56051;SDS011;41919;42.648;23.384;2022-08-03T15:07:30;2.30;;;2.10;;
56051;SDS011;41919;42.648;23.384;2022-08-03T15:09:55;2.85;;;1.88;;
56051;SDS011;41919;42.648;23.384;2022-08-03T15:12:21;6.25;;;2.25;;
56051;SDS011;41919;42.648;23.384;2022-08-03T15:14:46;1.92;;;1.73;;
56051;SDS011;41919;42.648;23.384;2022-08-03T15:17:12;3.08;;;1.90;;
56051;SDS011;41919;42.648;23.384;2022-08-03T15:19:37;2.53;;;2.33;;
56051;SDS011;41919;42.648;23.384;2022-08-03T15:22:04;3.97;;;2.22;;
56051;SDS011;41919;42.648;23.384;2022-08-03T15:24:29;1.92;;;1.77;;
56051;SDS011;41919;42.648;23.384;2022-08-03T15:26:55;2.90;;;2.25;;
56051;SDS011;41919;42.648;23.384;2022-08-03T15:29:20;5.00;;;2.40;;
56051;SDS011;41919;42.648;23.384;2022-08-03T15:31:46;2.78;;;1.58;;
56051;SDS011;41919;42.648;23.384;2022-08-03T15:34:11;2.28;;;2.00;;
56051;SDS011;41919;42.648;23.384;2022-08-03T15:36:37;2.20;;;2.00;;
56051;SDS011;41919;42.648;23.384;2022-08-03T15:39:03;3.20;;;2.13;;